createdAt,value
2019-05-06T00:00:05.644Z,0.00
2019-05-06T00:01:05.633Z,0.00
2019-05-06T00:02:05.639Z,0.00
2019-05-06T00:03:05.610Z,0.00
2019-05-06T00:04:05.610Z,0.00
2019-05-06T00:05:05.590Z,0.00
2019-05-06T00:06:05.578Z,0.00
2019-05-06T00:07:05.580Z,0.00
2019-05-06T00:08:05.556Z,0.00
2019-05-06T00:09:05.547Z,0.00
2019-05-06T00:10:05.858Z,0.00
2019-05-06T00:11:05.523Z,0.00
2019-05-06T00:12:05.522Z,0.00
2019-05-06T00:13:05.511Z,0.00
2019-05-06T00:14:05.490Z,0.00
2019-05-06T00:15:05.479Z,0.00
2019-05-06T00:16:05.468Z,0.00
2019-05-06T00:17:05.466Z,0.00
2019-05-06T00:18:05.448Z,0.00
2019-05-06T00:19:05.435Z,0.00
2019-05-06T00:20:05.430Z,0.00
2019-05-06T00:21:05.413Z,0.00
2019-05-06T00:22:05.430Z,0.00
2019-05-06T00:23:05.393Z,0.00
2019-05-06T00:24:05.382Z,0.00
2019-05-06T00:25:05.496Z,0.00
2019-05-06T00:26:05.359Z,0.00
2019-05-06T00:27:05.348Z,0.00
2019-05-06T00:28:06.159Z,0.00
2019-05-06T00:29:05.326Z,0.00
2019-05-06T00:30:05.316Z,0.00
2019-05-06T00:31:12.845Z,0.00
2019-05-06T00:32:06.313Z,0.00
2019-05-06T00:33:05.292Z,0.00
2019-05-06T00:34:05.271Z,0.00
2019-05-06T00:35:05.261Z,0.00
2019-05-06T00:36:05.250Z,0.00
2019-05-06T00:37:05.239Z,0.00
2019-05-06T00:38:05.237Z,0.00
2019-05-06T00:39:05.221Z,0.00
2019-05-06T00:40:05.204Z,0.00
2019-05-06T00:41:05.200Z,0.00
2019-05-06T00:42:05.188Z,0.00
2019-05-06T00:43:05.182Z,0.00
2019-05-06T00:44:05.161Z,0.00
2019-05-06T00:45:05.149Z,0.00
2019-05-06T00:46:05.140Z,0.00
2019-05-06T00:47:05.129Z,0.00
2019-05-06T00:48:05.159Z,0.00
2019-05-06T00:49:05.107Z,0.00
2019-05-06T00:50:05.095Z,0.00
2019-05-06T00:51:05.084Z,0.00
2019-05-06T00:52:05.075Z,0.00
2019-05-06T00:53:05.077Z,0.00
2019-05-06T00:54:05.055Z,0.00
2019-05-06T00:55:05.041Z,0.00
2019-05-06T00:56:05.032Z,0.00
2019-05-06T00:57:05.046Z,0.00
2019-05-06T00:58:05.018Z,0.00
2019-05-06T00:59:05.010Z,0.00
2019-05-06T01:00:04.986Z,0.00
2019-05-06T01:01:04.978Z,0.00
2019-05-06T01:02:04.963Z,0.00
2019-05-06T01:03:04.953Z,0.00
2019-05-06T01:04:04.952Z,0.00
2019-05-06T01:05:04.931Z,0.00
2019-05-06T01:06:04.924Z,0.00
2019-05-06T01:07:04.911Z,0.00
2019-05-06T01:08:04.898Z,0.00
2019-05-06T01:09:04.896Z,0.00
2019-05-06T01:10:04.878Z,0.00
2019-05-06T01:11:04.867Z,0.00
2019-05-06T01:12:04.855Z,0.00
2019-05-06T01:13:04.843Z,0.00
2019-05-06T01:14:04.841Z,0.00
2019-05-06T01:15:04.823Z,0.00
2019-05-06T01:16:04.811Z,0.00
2019-05-06T01:17:04.799Z,0.00
2019-05-06T01:18:04.791Z,0.00
2019-05-06T01:19:04.864Z,0.00
2019-05-06T01:20:04.767Z,0.00
2019-05-06T01:21:04.755Z,0.00
2019-05-06T01:22:04.780Z,0.00
2019-05-06T01:23:04.736Z,0.00
2019-05-06T01:24:04.732Z,0.00
2019-05-06T01:25:04.713Z,0.00
2019-05-06T01:26:04.701Z,0.00
2019-05-06T01:27:04.690Z,0.00
2019-05-06T01:28:04.680Z,0.00
2019-05-06T01:29:04.682Z,0.00
2019-05-06T01:30:04.659Z,0.00
2019-05-06T01:31:04.646Z,0.00
2019-05-06T01:32:04.635Z,0.00
2019-05-06T01:33:04.624Z,0.00
2019-05-06T01:34:04.621Z,0.00
2019-05-06T01:35:04.824Z,0.00
2019-05-06T01:36:04.639Z,0.00
2019-05-06T01:37:04.580Z,0.00
2019-05-06T01:38:04.569Z,0.00
2019-05-06T01:39:04.571Z,0.00
2019-05-06T01:40:04.546Z,0.00
2019-05-06T01:41:04.538Z,0.00
2019-05-06T01:42:04.602Z,0.00
2019-05-06T01:43:04.514Z,0.00
2019-05-06T01:44:04.515Z,0.00
2019-05-06T01:45:04.780Z,0.00
2019-05-06T01:46:04.764Z,0.00
2019-05-06T01:47:04.474Z,0.00
2019-05-06T01:48:04.462Z,0.00
2019-05-06T01:49:04.486Z,0.00
2019-05-06T01:50:04.575Z,0.00
2019-05-06T01:51:04.428Z,0.00
2019-05-06T01:52:04.423Z,0.00
2019-05-06T01:53:04.973Z,0.00
2019-05-06T01:54:04.400Z,0.00
2019-05-06T01:55:04.869Z,0.00
2019-05-06T01:56:04.374Z,0.00
2019-05-06T01:57:04.702Z,0.00
2019-05-06T01:58:05.096Z,0.00
2019-05-06T01:59:04.734Z,0.00
2019-05-06T02:00:04.881Z,0.00
2019-05-06T02:01:04.323Z,0.00
2019-05-06T02:02:04.539Z,0.00
2019-05-06T02:03:04.297Z,0.00
2019-05-06T02:04:04.623Z,0.00
2019-05-06T02:05:04.829Z,0.00
2019-05-06T02:06:04.848Z,0.00
2019-05-06T02:07:04.253Z,0.00
2019-05-06T02:08:04.250Z,0.00
2019-05-06T02:09:04.661Z,0.00
2019-05-06T02:10:04.229Z,0.00
2019-05-06T02:11:04.217Z,0.00
2019-05-06T02:12:04.714Z,0.00
2019-05-06T02:13:04.191Z,0.00
2019-05-06T02:14:04.897Z,0.00
2019-05-06T02:15:04.214Z,0.00
2019-05-06T02:16:04.153Z,0.00
2019-05-06T02:17:04.143Z,0.00
2019-05-06T02:18:04.311Z,0.00
2019-05-06T02:19:04.361Z,0.00
2019-05-06T02:20:04.314Z,0.00
2019-05-06T02:21:05.420Z,0.00
2019-05-06T02:22:04.360Z,0.00
2019-05-06T02:23:04.280Z,0.00
2019-05-06T02:24:04.320Z,0.00
2019-05-06T02:25:04.581Z,0.00
2019-05-06T02:26:04.875Z,0.00
2019-05-06T02:27:04.509Z,0.00
2019-05-06T02:28:04.109Z,0.00
2019-05-06T02:29:04.347Z,0.00
2019-05-06T02:30:05.534Z,0.00
2019-05-06T02:31:05.338Z,0.00
2019-05-06T02:32:17.114Z,0.00
2019-05-06T02:33:04.968Z,0.00
2019-05-06T02:34:05.105Z,0.00
2019-05-06T02:35:05.139Z,0.00
2019-05-06T02:36:06.484Z,0.00
2019-05-06T02:37:06.299Z,0.00
2019-05-06T02:38:04.808Z,0.00
2019-05-06T02:39:03.906Z,0.00
2019-05-06T02:40:04.416Z,0.00
2019-05-06T02:41:03.935Z,0.00
2019-05-06T02:42:04.217Z,0.00
2019-05-06T02:43:03.872Z,0.00
2019-05-06T02:44:03.907Z,0.00
2019-05-06T02:45:04.223Z,0.00
2019-05-06T02:46:04.457Z,0.00
2019-05-06T02:47:03.818Z,0.00
2019-05-06T02:48:04.627Z,0.00
2019-05-06T02:49:03.991Z,0.00
2019-05-06T02:50:04.726Z,0.00
2019-05-06T02:51:04.092Z,0.00
2019-05-06T02:52:03.762Z,0.00
2019-05-06T02:53:03.759Z,0.00
2019-05-06T02:54:03.747Z,0.00
2019-05-06T02:55:06.384Z,0.00
2019-05-06T02:56:04.296Z,0.00
2019-05-06T02:57:04.405Z,0.00
2019-05-06T02:58:03.703Z,0.00
2019-05-06T02:59:04.094Z,0.00
2019-05-06T03:00:05.094Z,0.00
2019-05-06T03:01:04.041Z,0.00
2019-05-06T03:02:03.772Z,0.00
2019-05-06T03:03:03.638Z,0.00
2019-05-06T03:04:04.600Z,0.00
2019-05-06T03:05:04.406Z,0.00
2019-05-06T03:06:04.286Z,0.00
2019-05-06T03:07:03.970Z,0.00
2019-05-06T03:08:03.589Z,0.00
2019-05-06T03:09:03.575Z,0.00
2019-05-06T03:10:04.110Z,0.00
2019-05-06T03:11:04.297Z,0.00
2019-05-06T03:12:04.026Z,0.00
2019-05-06T03:13:03.534Z,0.00
2019-05-06T03:14:03.592Z,0.00
2019-05-06T03:15:03.633Z,0.00
2019-05-06T03:16:05.770Z,0.00
2019-05-06T03:17:03.887Z,0.00
2019-05-06T03:18:03.483Z,0.00
2019-05-06T03:19:04.294Z,0.00
2019-05-06T03:20:04.356Z,0.00
2019-05-06T03:21:04.047Z,0.00
2019-05-06T03:22:03.589Z,0.00
2019-05-06T03:23:03.863Z,0.00
2019-05-06T03:24:07.452Z,0.00
2019-05-06T03:25:06.399Z,0.00
2019-05-06T03:26:06.396Z,0.00
2019-05-06T03:27:04.455Z,0.00
2019-05-06T03:28:04.143Z,0.00
2019-05-06T03:29:03.396Z,0.00
2019-05-06T03:30:04.140Z,0.00
2019-05-06T03:31:06.897Z,0.00
2019-05-06T03:32:06.739Z,0.00
2019-05-06T03:34:27.753Z,0.00
2019-05-06T03:35:25.790Z,0.00
2019-05-06T03:36:15.373Z,0.00
2019-05-06T03:37:07.257Z,0.00
2019-05-06T03:38:03.970Z,0.00
2019-05-06T03:39:03.257Z,0.00
2019-05-06T03:40:03.318Z,0.00
2019-05-06T03:41:03.368Z,0.00
2019-05-06T03:42:04.526Z,0.00
2019-05-06T03:43:03.217Z,5.62
2019-05-06T03:44:03.469Z,5.62
2019-05-06T03:45:04.136Z,5.62
2019-05-06T03:46:04.277Z,5.62
2019-05-06T03:47:05.668Z,5.62
2019-05-06T03:48:05.962Z,5.62
2019-05-06T03:49:03.820Z,5.62
2019-05-06T03:50:04.600Z,5.62
2019-05-06T03:51:04.060Z,5.62
2019-05-06T03:52:03.165Z,5.62
2019-05-06T03:53:03.411Z,5.62
2019-05-06T03:54:03.410Z,5.62
2019-05-06T03:55:03.855Z,5.62
2019-05-06T03:56:03.538Z,5.62
2019-05-06T03:57:03.256Z,5.62
2019-05-06T03:58:03.818Z,5.62
2019-05-06T03:59:03.032Z,11.25
2019-05-06T04:00:04.642Z,11.25
2019-05-06T04:01:03.693Z,11.25
2019-05-06T04:02:05.313Z,11.25
2019-05-06T04:03:03.293Z,11.25
2019-05-06T04:04:03.714Z,11.25
2019-05-06T04:05:04.012Z,11.25
2019-05-06T04:06:04.500Z,11.25
2019-05-06T04:07:03.535Z,11.25
2019-05-06T04:08:03.864Z,11.25
2019-05-06T04:09:03.581Z,16.88
2019-05-06T04:10:03.808Z,16.88
2019-05-06T04:11:03.254Z,16.88
2019-05-06T04:12:03.589Z,16.88
2019-05-06T04:13:04.097Z,16.88
2019-05-06T04:14:02.966Z,16.88
2019-05-06T04:15:04.078Z,16.88
2019-05-06T04:16:03.716Z,16.88
2019-05-06T04:17:03.408Z,16.88
2019-05-06T04:18:03.839Z,16.88
2019-05-06T04:19:04.131Z,16.88
2019-05-06T04:20:03.989Z,22.50
2019-05-06T04:21:03.759Z,22.50
2019-05-06T04:22:03.665Z,22.50
2019-05-06T04:23:05.975Z,22.50
2019-05-06T04:24:04.073Z,22.50
2019-05-06T04:25:04.061Z,22.50
2019-05-06T04:26:03.568Z,22.50
2019-05-06T04:27:03.242Z,22.50
2019-05-06T04:28:03.075Z,22.50
2019-05-06T04:29:03.860Z,22.50
2019-05-06T04:30:04.696Z,22.50
2019-05-06T04:31:02.849Z,22.50
2019-05-06T04:32:03.462Z,28.12
2019-05-06T04:33:03.294Z,28.12
2019-05-06T04:34:12.639Z,28.12
2019-05-06T04:35:04.425Z,28.12
2019-05-06T04:36:03.609Z,28.12
2019-05-06T04:37:03.507Z,28.12
2019-05-06T04:38:03.120Z,28.12
2019-05-06T04:39:04.097Z,28.12
2019-05-06T04:40:04.503Z,28.12
2019-05-06T04:41:03.065Z,33.75
2019-05-06T04:42:03.450Z,33.75
2019-05-06T04:43:03.550Z,33.75
2019-05-06T04:44:02.998Z,33.75
2019-05-06T04:45:04.560Z,33.75
2019-05-06T04:46:03.083Z,33.75
2019-05-06T04:47:05.064Z,39.38
2019-05-06T04:48:03.543Z,39.38
2019-05-06T04:49:03.967Z,39.38
2019-05-06T04:50:04.915Z,45.00
2019-05-06T04:51:03.285Z,45.00
2019-05-06T04:52:03.592Z,45.00
2019-05-06T04:53:04.959Z,45.00
2019-05-06T04:54:04.198Z,45.00
2019-05-06T04:55:03.367Z,45.00
2019-05-06T04:56:03.879Z,45.00
2019-05-06T04:57:04.993Z,45.00
2019-05-06T04:58:04.042Z,50.62
2019-05-06T04:59:05.747Z,50.62
2019-05-06T05:00:04.197Z,50.62
2019-05-06T05:01:04.085Z,50.62
2019-05-06T05:02:02.755Z,56.25
2019-05-06T05:03:02.995Z,56.25
2019-05-06T05:04:03.561Z,56.25
2019-05-06T05:05:04.085Z,56.25
2019-05-06T05:06:05.640Z,56.25
2019-05-06T05:07:03.372Z,61.88
2019-05-06T05:08:02.532Z,61.88
2019-05-06T05:09:03.006Z,61.88
2019-05-06T05:10:03.512Z,67.50
2019-05-06T05:11:03.552Z,67.50
2019-05-06T05:12:02.838Z,67.50
2019-05-06T05:13:03.543Z,67.50
2019-05-06T05:14:02.930Z,67.50
2019-05-06T05:15:03.272Z,67.50
2019-05-06T05:16:02.410Z,73.12
2019-05-06T05:17:02.383Z,78.75
2019-05-06T05:18:03.196Z,78.75
2019-05-06T05:19:02.771Z,78.75
2019-05-06T05:20:02.273Z,73.12
2019-05-06T05:21:02.513Z,78.75
2019-05-06T05:22:02.845Z,84.38
2019-05-06T05:23:02.330Z,95.62
2019-05-06T05:24:02.194Z,101.25
2019-05-06T05:25:03.423Z,112.50
2019-05-06T05:26:02.908Z,219.38
2019-05-06T05:27:03.163Z,236.25
2019-05-06T05:28:02.230Z,174.38
2019-05-06T05:29:02.814Z,180.00
2019-05-06T05:30:02.252Z,196.88
2019-05-06T05:31:03.065Z,185.62
2019-05-06T05:32:02.246Z,185.62
2019-05-06T05:33:02.627Z,191.25
2019-05-06T05:34:02.246Z,202.50
2019-05-06T05:35:02.217Z,151.88
2019-05-06T05:36:02.227Z,168.75
2019-05-06T05:37:03.032Z,275.62
2019-05-06T05:38:03.070Z,315.00
2019-05-06T05:39:03.321Z,292.50
2019-05-06T05:40:03.014Z,371.25
2019-05-06T05:41:03.068Z,360.00
2019-05-06T05:42:02.966Z,247.50
2019-05-06T05:43:02.876Z,163.12
2019-05-06T05:44:02.422Z,123.75
2019-05-06T05:45:02.687Z,123.75
2019-05-06T05:46:02.933Z,180.00
2019-05-06T05:47:03.459Z,225.00
2019-05-06T05:48:02.860Z,258.75
2019-05-06T05:49:02.856Z,360.00
2019-05-06T05:50:03.032Z,461.25
2019-05-06T05:51:03.350Z,489.38
2019-05-06T05:52:03.390Z,495.00
2019-05-06T05:53:02.453Z,534.38
2019-05-06T05:54:02.304Z,540.00
2019-05-06T05:55:02.721Z,590.62
2019-05-06T05:56:02.557Z,427.50
2019-05-06T05:57:02.402Z,410.62
2019-05-06T05:58:03.232Z,360.00
2019-05-06T05:59:03.341Z,466.88
2019-05-06T06:00:03.905Z,382.50
2019-05-06T06:01:03.994Z,208.12
2019-05-06T06:02:03.835Z,208.12
2019-05-06T06:03:02.942Z,320.62
2019-05-06T06:04:03.039Z,343.12
2019-05-06T06:05:02.512Z,315.00
2019-05-06T06:06:03.043Z,253.12
2019-05-06T06:07:02.654Z,247.50
2019-05-06T06:08:02.910Z,191.25
2019-05-06T06:09:03.151Z,157.50
2019-05-06T06:10:02.679Z,135.00
2019-05-06T06:11:04.129Z,129.38
2019-05-06T06:12:02.745Z,135.00
2019-05-06T06:13:02.166Z,135.00
2019-05-06T06:14:02.974Z,135.00
2019-05-06T06:15:02.249Z,135.00
2019-05-06T06:16:02.885Z,135.00
2019-05-06T06:17:02.015Z,135.00
2019-05-06T06:18:03.002Z,135.00
2019-05-06T06:19:03.194Z,135.00
2019-05-06T06:20:02.651Z,135.00
2019-05-06T06:21:17.072Z,140.62
2019-05-06T06:22:02.796Z,140.62
2019-05-06T06:23:02.928Z,140.62
2019-05-06T06:24:02.779Z,140.62
2019-05-06T06:25:04.254Z,140.62
2019-05-06T06:26:03.948Z,140.62
2019-05-06T06:27:03.055Z,146.25
2019-05-06T06:28:02.676Z,146.25
2019-05-06T06:29:03.287Z,146.25
2019-05-06T06:30:02.419Z,146.25
2019-05-06T06:31:03.044Z,151.88
2019-05-06T06:32:03.112Z,151.88
2019-05-06T06:33:02.547Z,151.88
2019-05-06T06:34:01.994Z,151.88
2019-05-06T06:35:10.824Z,151.88
2019-05-06T06:36:02.851Z,157.50
2019-05-06T06:37:02.585Z,157.50
2019-05-06T06:38:02.738Z,163.12
2019-05-06T06:39:02.153Z,163.12
2019-05-06T06:40:02.572Z,73.12
2019-05-06T06:41:02.715Z,157.50
2019-05-06T06:42:02.844Z,163.12
2019-05-06T06:43:02.171Z,163.12
2019-05-06T06:44:02.280Z,163.12
2019-05-06T06:45:03.538Z,168.75
2019-05-06T06:46:02.518Z,163.12
2019-05-06T06:47:02.065Z,168.75
2019-05-06T06:48:03.153Z,168.75
2019-05-06T06:49:03.103Z,168.75
2019-05-06T06:50:02.763Z,106.88
2019-05-06T06:51:03.290Z,163.12
2019-05-06T06:52:02.801Z,168.75
2019-05-06T06:53:03.091Z,168.75
2019-05-06T06:54:02.510Z,168.75
2019-05-06T06:55:02.339Z,185.62
2019-05-06T06:56:02.053Z,185.62
2019-05-06T06:57:06.125Z,185.62
2019-05-06T06:58:02.683Z,208.12
2019-05-06T06:59:02.587Z,208.12
2019-05-06T07:00:03.884Z,123.75
2019-05-06T07:01:03.154Z,106.88
2019-05-06T07:02:02.736Z,191.25
2019-05-06T07:03:02.729Z,196.88
2019-05-06T07:04:04.686Z,112.50
2019-05-06T07:05:02.477Z,129.38
2019-05-06T07:06:02.364Z,135.00
2019-05-06T07:07:02.937Z,106.88
2019-05-06T07:08:02.179Z,106.88
2019-05-06T07:09:02.709Z,213.75
2019-05-06T07:10:02.700Z,202.50
2019-05-06T07:11:02.224Z,106.88
2019-05-06T07:12:03.320Z,112.50
2019-05-06T07:13:02.944Z,101.25
2019-05-06T07:14:02.643Z,106.88
2019-05-06T07:15:02.349Z,123.75
2019-05-06T07:16:02.911Z,202.50
2019-05-06T07:17:02.467Z,191.25
2019-05-06T07:18:02.314Z,140.62
2019-05-06T07:19:02.963Z,213.75
2019-05-06T07:20:02.865Z,208.12
2019-05-06T07:21:04.119Z,208.12
2019-05-06T07:22:02.830Z,219.38
2019-05-06T07:23:01.940Z,230.62
2019-05-06T07:24:02.144Z,225.00
2019-05-06T07:25:03.735Z,219.38
2019-05-06T07:26:02.842Z,219.38
2019-05-06T07:27:02.892Z,196.88
2019-05-06T07:28:02.814Z,101.25
2019-05-06T07:29:03.937Z,230.62
2019-05-06T07:30:02.982Z,191.25
2019-05-06T07:31:14.907Z,241.88
2019-05-06T07:32:02.628Z,185.62
2019-05-06T07:33:03.461Z,236.25
2019-05-06T07:34:02.511Z,157.50
2019-05-06T07:35:02.218Z,140.62
2019-05-06T07:36:02.157Z,236.25
2019-05-06T07:37:03.254Z,230.62
2019-05-06T07:38:02.378Z,236.25
2019-05-06T07:39:04.125Z,270.00
2019-05-06T07:40:02.885Z,292.50
2019-05-06T07:41:04.184Z,247.50
2019-05-06T07:42:02.476Z,286.88
2019-05-06T07:43:02.285Z,168.75
2019-05-06T07:44:02.150Z,253.12
2019-05-06T07:45:06.134Z,236.25
2019-05-06T07:46:02.547Z,236.25
2019-05-06T07:47:03.355Z,270.00
2019-05-06T07:48:00.505Z,275.62
2019-05-06T07:49:03.006Z,281.25
2019-05-06T07:50:02.415Z,298.12
2019-05-06T07:51:02.882Z,286.88
2019-05-06T07:52:02.743Z,146.25
2019-05-06T07:53:02.365Z,157.50
2019-05-06T07:54:02.649Z,230.62
2019-05-06T07:55:02.380Z,140.62
2019-05-06T07:56:03.490Z,123.75
2019-05-06T07:57:02.407Z,112.50
2019-05-06T07:58:02.394Z,95.62
2019-05-06T07:59:00.382Z,112.50
2019-05-06T08:00:03.128Z,281.25
2019-05-06T08:01:02.721Z,517.50
2019-05-06T08:02:02.299Z,337.50
2019-05-06T08:03:02.428Z,196.88
2019-05-06T08:04:02.507Z,309.38
2019-05-06T08:05:02.425Z,163.12
2019-05-06T08:06:02.517Z,140.62
2019-05-06T08:07:00.294Z,180.00
2019-05-06T08:08:00.282Z,348.75
2019-05-06T08:09:00.271Z,433.12
2019-05-06T08:10:02.195Z,675.00
2019-05-06T08:11:02.488Z,495.00
2019-05-06T08:12:02.643Z,393.75
2019-05-06T08:13:02.498Z,196.88
2019-05-06T08:14:02.201Z,630.00
2019-05-06T08:15:04.464Z,382.50
2019-05-06T08:16:02.258Z,804.38
2019-05-06T08:17:02.277Z,298.12
2019-05-06T08:18:00.174Z,219.38
2019-05-06T08:19:00.164Z,168.75
2019-05-06T08:20:02.520Z,118.12
2019-05-06T08:21:02.357Z,129.38
2019-05-06T08:22:00.128Z,123.75
2019-05-06T08:23:02.000Z,118.12
2019-05-06T08:24:00.111Z,106.88
2019-05-06T08:25:00.103Z,106.88
2019-05-06T08:26:10.110Z,866.25
2019-05-06T08:27:02.900Z,950.62
2019-05-06T08:28:02.248Z,1023.75
2019-05-06T08:29:00.050Z,1018.12
2019-05-06T08:30:02.435Z,1063.12
2019-05-06T08:31:02.230Z,1080.00
2019-05-06T08:32:00.021Z,410.62
2019-05-06T08:33:01.799Z,1237.50
2019-05-06T08:33:59.996Z,1001.25
2019-05-06T08:34:59.985Z,928.12
2019-05-06T08:36:10.519Z,1237.50
2019-05-06T08:37:02.461Z,950.62
2019-05-06T08:37:59.952Z,618.75
2019-05-06T08:38:59.959Z,168.75
2019-05-06T08:39:59.930Z,230.62
2019-05-06T08:40:59.927Z,157.50
2019-05-06T08:42:02.666Z,180.00
2019-05-06T08:43:02.061Z,1164.38
2019-05-06T08:44:02.352Z,1366.88
2019-05-06T08:45:02.083Z,1006.88
2019-05-06T08:45:59.887Z,736.88
2019-05-06T08:46:59.854Z,1209.38
2019-05-06T08:47:59.842Z,1074.38
2019-05-06T08:48:59.833Z,225.00
2019-05-06T08:50:02.196Z,168.75
2019-05-06T08:50:59.829Z,180.00
2019-05-06T08:52:02.230Z,163.12
2019-05-06T08:52:59.788Z,180.00
2019-05-06T08:53:59.783Z,213.75
2019-05-06T08:55:02.277Z,933.75
2019-05-06T08:56:01.885Z,624.38
2019-05-06T08:56:59.744Z,320.62
2019-05-06T08:57:59.733Z,219.38
2019-05-06T08:58:59.724Z,444.38
2019-05-06T08:59:59.714Z,590.62
2019-05-06T09:00:59.711Z,725.62
2019-05-06T09:01:59.687Z,292.50
2019-05-06T09:02:59.677Z,230.62
2019-05-06T09:04:09.541Z,225.00
2019-05-06T09:05:02.974Z,168.75
2019-05-06T09:05:59.676Z,360.00
2019-05-06T09:06:59.633Z,945.00
2019-05-06T09:07:59.623Z,1265.62
2019-05-06T09:08:59.615Z,770.62
2019-05-06T09:09:59.605Z,1035.00
2019-05-06T09:10:59.590Z,961.88
2019-05-06T09:11:59.592Z,1434.38
2019-05-06T09:13:01.924Z,1023.75
2019-05-06T09:13:59.559Z,517.50
2019-05-06T09:14:59.545Z,258.75
2019-05-06T09:15:59.537Z,466.88
2019-05-06T09:16:59.550Z,168.75
2019-05-06T09:17:59.513Z,208.12
2019-05-06T09:18:59.508Z,376.88
2019-05-06T09:19:59.492Z,157.50
2019-05-06T09:20:59.480Z,146.25
2019-05-06T09:21:59.478Z,151.88
2019-05-06T09:22:59.461Z,135.00
2019-05-06T09:23:59.449Z,129.38
2019-05-06T09:24:59.436Z,151.88
2019-05-06T09:25:59.432Z,883.12
2019-05-06T09:26:59.421Z,1237.50
2019-05-06T09:27:59.404Z,1248.75
2019-05-06T09:28:59.393Z,1203.75
2019-05-06T09:29:59.380Z,309.38
2019-05-06T09:30:59.370Z,174.38
2019-05-06T09:31:59.372Z,151.88
2019-05-06T09:32:59.347Z,146.25
2019-05-06T09:33:59.380Z,208.12
2019-05-06T09:34:59.327Z,286.88
2019-05-06T09:35:59.346Z,253.12
2019-05-06T09:36:59.394Z,399.38
2019-05-06T09:37:59.297Z,416.25
2019-05-06T09:38:59.282Z,410.62
2019-05-06T09:39:59.276Z,382.50
2019-05-06T09:40:59.260Z,320.62
2019-05-06T09:41:59.303Z,382.50
2019-05-06T09:42:59.241Z,371.25
2019-05-06T09:43:59.227Z,151.88
2019-05-06T09:44:59.222Z,123.75
2019-05-06T09:45:59.205Z,118.12
2019-05-06T09:46:59.204Z,112.50
2019-05-06T09:47:59.184Z,95.62
2019-05-06T09:48:59.173Z,84.38
2019-05-06T09:49:59.162Z,73.12
2019-05-06T09:50:59.167Z,67.50
2019-05-06T09:51:59.150Z,67.50
2019-05-06T09:52:59.128Z,73.12
2019-05-06T09:54:01.549Z,78.75
2019-05-06T09:54:59.128Z,90.00
2019-05-06T09:55:59.104Z,106.88
2019-05-06T09:56:59.126Z,168.75
2019-05-06T09:57:59.074Z,253.12
2019-05-06T09:58:59.063Z,337.50
2019-05-06T09:59:59.051Z,433.12
2019-05-06T10:00:59.045Z,230.62
2019-05-06T10:01:59.041Z,213.75
2019-05-06T10:02:59.029Z,281.25
2019-05-06T10:03:59.007Z,630.00
2019-05-06T10:04:59.001Z,472.50
2019-05-06T10:05:58.989Z,264.38
2019-05-06T10:07:00.069Z,241.88
2019-05-06T10:07:58.975Z,196.88
2019-05-06T10:08:58.955Z,129.38
2019-05-06T10:09:58.943Z,106.88
2019-05-06T10:10:59.877Z,90.00
2019-05-06T10:11:58.919Z,84.38
2019-05-06T10:12:58.922Z,78.75
2019-05-06T10:13:58.900Z,78.75
2019-05-06T10:14:58.888Z,84.38
2019-05-06T10:15:58.879Z,90.00
2019-05-06T10:16:58.869Z,101.25
2019-05-06T10:17:58.863Z,112.50
2019-05-06T10:18:58.871Z,123.75
2019-05-06T10:19:58.832Z,151.88
2019-05-06T10:20:58.821Z,354.38
2019-05-06T10:21:58.813Z,3228.75
2019-05-06T10:22:58.808Z,3403.12
2019-05-06T10:23:58.830Z,3487.50
2019-05-06T10:24:58.802Z,3825.00
2019-05-06T10:25:58.767Z,3785.62
2019-05-06T10:26:58.754Z,3875.62
2019-05-06T10:27:58.754Z,3813.75
2019-05-06T10:28:58.733Z,2424.38
2019-05-06T10:29:58.723Z,1355.62
2019-05-06T10:30:58.711Z,1400.62
2019-05-06T10:31:58.699Z,630.00
2019-05-06T10:32:58.700Z,416.25
2019-05-06T10:33:58.688Z,1513.12
2019-05-06T10:34:58.669Z,360.00
2019-05-06T10:35:58.657Z,376.88
2019-05-06T10:37:11.509Z,1839.38
2019-05-06T10:37:59.649Z,3391.88
2019-05-06T10:38:58.626Z,3695.62
2019-05-06T10:39:58.615Z,3633.75
2019-05-06T10:41:04.068Z,3408.75
2019-05-06T10:41:59.607Z,3493.12
2019-05-06T10:42:58.596Z,3740.62
2019-05-06T10:43:58.578Z,2452.50
2019-05-06T10:44:59.393Z,3718.12
2019-05-06T10:46:01.185Z,4027.50
2019-05-06T10:46:59.568Z,686.25
2019-05-06T10:47:58.559Z,573.75
2019-05-06T10:48:58.516Z,3836.25
2019-05-06T10:49:58.506Z,3841.88
2019-05-06T10:50:58.498Z,1012.50
2019-05-06T10:51:58.504Z,3633.75
2019-05-06T10:52:58.479Z,3206.25
2019-05-06T10:53:58.478Z,225.00
2019-05-06T10:54:58.469Z,157.50
2019-05-06T10:55:58.443Z,140.62
2019-05-06T10:56:58.434Z,140.62
2019-05-06T10:57:58.422Z,135.00
2019-05-06T10:58:58.419Z,123.75
2019-05-06T10:59:58.402Z,123.75
2019-05-06T11:00:58.389Z,135.00
2019-05-06T11:01:58.377Z,208.12
2019-05-06T11:02:58.370Z,2913.75
2019-05-06T11:03:58.367Z,1147.50
2019-05-06T11:04:58.352Z,776.25
2019-05-06T11:05:58.337Z,1243.12
2019-05-06T11:06:58.323Z,489.38
2019-05-06T11:07:58.316Z,365.62
2019-05-06T11:08:58.317Z,236.25
2019-05-06T11:09:58.292Z,219.38
2019-05-06T11:11:12.449Z,230.62
2019-05-06T11:11:59.289Z,303.75
2019-05-06T11:12:58.259Z,230.62
2019-05-06T11:13:58.264Z,225.00
2019-05-06T11:14:58.238Z,331.88
2019-05-06T11:15:58.232Z,298.12
2019-05-06T11:16:58.215Z,281.25
2019-05-06T11:17:58.206Z,196.88
2019-05-06T11:18:58.204Z,174.38
2019-05-06T11:19:58.185Z,157.50
2019-05-06T11:20:58.171Z,135.00
2019-05-06T11:21:58.162Z,118.12
2019-05-06T11:22:58.166Z,101.25
2019-05-06T11:23:58.183Z,84.38
2019-05-06T11:24:58.127Z,78.75
2019-05-06T11:25:58.117Z,73.12
2019-05-06T11:26:58.105Z,78.75
2019-05-06T11:27:58.095Z,101.25
2019-05-06T11:28:58.084Z,112.50
2019-05-06T11:29:58.085Z,135.00
2019-05-06T11:30:58.063Z,275.62
2019-05-06T11:31:58.053Z,1850.62
2019-05-06T11:32:58.043Z,3273.75
2019-05-06T11:33:58.030Z,3324.38
2019-05-06T11:34:58.062Z,3335.62
2019-05-06T11:35:58.007Z,2604.38
2019-05-06T11:36:57.998Z,3465.00
2019-05-06T11:37:57.986Z,3195.00
2019-05-06T11:38:57.974Z,3105.00
2019-05-06T11:39:57.972Z,2643.75
2019-05-06T11:40:57.955Z,410.62
2019-05-06T11:42:15.275Z,264.38
2019-05-06T11:42:58.944Z,236.25
2019-05-06T11:43:57.921Z,225.00
2019-05-06T11:44:57.918Z,225.00
2019-05-06T11:45:57.898Z,292.50
2019-05-06T11:46:57.919Z,360.00
2019-05-06T11:47:57.876Z,444.38
2019-05-06T11:48:57.863Z,303.75
2019-05-06T11:49:57.864Z,326.25
2019-05-06T11:50:57.842Z,309.38
2019-05-06T11:51:57.831Z,253.12
2019-05-06T11:52:57.853Z,393.75
2019-05-06T11:53:57.810Z,337.50
2019-05-06T11:54:57.817Z,354.38
2019-05-06T11:55:57.790Z,292.50
2019-05-06T11:56:58.597Z,281.25
2019-05-06T11:57:57.768Z,241.88
2019-05-06T11:58:57.754Z,247.50
2019-05-06T11:59:57.754Z,225.00
2019-05-06T12:00:57.756Z,213.75
2019-05-06T12:01:57.739Z,208.12
2019-05-06T12:02:57.713Z,202.50
2019-05-06T12:03:57.708Z,208.12
2019-05-06T12:04:57.732Z,202.50
2019-05-06T12:05:57.677Z,208.12
2019-05-06T12:07:10.379Z,191.25
2019-05-06T12:08:06.947Z,157.50
2019-05-06T12:08:58.644Z,140.62
2019-05-06T12:09:57.642Z,140.62
2019-05-06T12:10:57.624Z,123.75
2019-05-06T12:11:57.615Z,112.50
2019-05-06T12:12:57.601Z,101.25
2019-05-06T12:13:57.590Z,106.88
2019-05-06T12:14:57.603Z,106.88
2019-05-06T12:15:57.568Z,118.12
2019-05-06T12:16:57.570Z,123.75
2019-05-06T12:17:57.547Z,135.00
2019-05-06T12:18:59.776Z,151.88
2019-05-06T12:19:57.564Z,174.38
2019-05-06T12:21:08.202Z,185.62
2019-05-06T12:21:58.501Z,174.38
2019-05-06T12:22:57.491Z,196.88
2019-05-06T12:23:57.482Z,202.50
2019-05-06T12:24:57.469Z,213.75
2019-05-06T12:25:57.526Z,202.50
2019-05-06T12:26:57.451Z,191.25
2019-05-06T12:27:57.446Z,196.88
2019-05-06T12:28:57.427Z,208.12
2019-05-06T12:29:57.414Z,225.00
2019-05-06T12:30:57.415Z,241.88
2019-05-06T12:31:57.393Z,286.88
2019-05-06T12:32:57.380Z,270.00
2019-05-06T12:33:57.372Z,253.12
2019-05-06T12:34:57.361Z,225.00
2019-05-06T12:35:57.359Z,225.00
2019-05-06T12:36:57.341Z,219.38
2019-05-06T12:37:57.326Z,219.38
2019-05-06T12:38:57.317Z,213.75
2019-05-06T12:39:57.310Z,196.88
2019-05-06T12:40:59.848Z,168.75
2019-05-06T12:41:57.283Z,163.12
2019-05-06T12:42:57.273Z,168.75
2019-05-06T12:43:57.260Z,163.12
2019-05-06T12:44:57.249Z,163.12